sensor_id;sensor_type;location;lat;lon;timestamp;pressure;altitude;pressure_sealevel;temperature;humidity
71149;BME280;59072;42.144;25.200;2023-08-30T00:01:51;98893.47;;;25.72;51.61
71149;BME280;59072;42.144;25.200;2023-08-30T00:04:17;98892.09;;;25.50;52.19
71149;BME280;59072;42.144;25.200;2023-08-30T00:06:42;98890.84;;;25.47;52.18
71149;BME280;59072;42.144;25.200;2023-08-30T00:09:08;98886.94;;;25.32;52.50
71149;BME280;59072;42.144;25.200;2023-08-30T00:11:34;98882.28;;;25.20;52.97
71149;BME280;59072;42.144;25.200;2023-08-30T00:14:03;98870.84;;;25.43;52.36
71149;BME280;59072;42.144;25.200;2023-08-30T00:16:31;98874.69;;;25.14;53.21
71149;BME280;59072;42.144;25.200;2023-08-30T00:18:57;98866.16;;;25.15;52.83
71149;BME280;59072;42.144;25.200;2023-08-30T00:21:22;98871.97;;;25.14;53.61
71149;BME280;59072;42.144;25.200;2023-08-30T00:23:47;98872.06;;;25.30;52.52
71149;BME280;59072;42.144;25.200;2023-08-30T00:26:13;98877.50;;;25.30;52.80
71149;BME280;59072;42.144;25.200;2023-08-30T00:28:38;98875.03;;;25.12;53.62
71149;BME280;59072;42.144;25.200;2023-08-30T00:31:05;98872.28;;;25.12;54.45
71149;BME280;59072;42.144;25.200;2023-08-30T00:33:30;98871.44;;;24.96;54.15
71149;BME280;59072;42.144;25.200;2023-08-30T00:35:59;98856.53;;;25.05;53.13
71149;BME280;59072;42.144;25.200;2023-08-30T00:38:28;98869.59;;;25.00;53.46
71149;BME280;59072;42.144;25.200;2023-08-30T00:40:54;98867.00;;;24.91;53.46
71149;BME280;59072;42.144;25.200;2023-08-30T00:43:20;98872.31;;;25.00;53.33
71149;BME280;59072;42.144;25.200;2023-08-30T00:45:47;98868.94;;;24.78;53.68
71149;BME280;59072;42.144;25.200;2023-08-30T00:48:14;98859.66;;;24.67;54.43
71149;BME280;59072;42.144;25.200;2023-08-30T00:50:41;98864.75;;;24.81;53.87
71149;BME280;59072;42.144;25.200;2023-08-30T00:53:07;98862.81;;;24.81;53.58
71149;BME280;59072;42.144;25.200;2023-08-30T00:55:37;98876.00;;;24.79;53.92
71149;BME280;59072;42.144;25.200;2023-08-30T00:58:03;98874.81;;;24.93;53.10
71149;BME280;59072;42.144;25.200;2023-08-30T01:00:31;98873.47;;;24.86;53.50
71149;BME280;59072;42.144;25.200;2023-08-30T01:02:58;98873.59;;;24.78;53.74
71149;BME280;59072;42.144;25.200;2023-08-30T01:05:23;98881.47;;;24.67;53.96
71149;BME280;59072;42.144;25.200;2023-08-30T01:07:50;98889.84;;;24.99;53.45
71149;BME280;59072;42.144;25.200;2023-08-30T01:10:16;98886.22;;;24.95;53.10
71149;BME280;59072;42.144;25.200;2023-08-30T01:13:09;98885.63;;;25.01;52.89
71149;BME280;59072;42.144;25.200;2023-08-30T01:15:35;98889.38;;;24.84;53.32
71149;BME280;59072;42.144;25.200;2023-08-30T01:18:05;98879.06;;;24.65;53.75
71149;BME280;59072;42.144;25.200;2023-08-30T01:20:36;98897.13;;;24.70;53.83
71149;BME280;59072;42.144;25.200;2023-08-30T01:23:05;98898.28;;;24.69;54.34
71149;BME280;59072;42.144;25.200;2023-08-30T01:25:38;98900.41;;;24.63;54.31
71149;BME280;59072;42.144;25.200;2023-08-30T01:28:08;98911.31;;;24.76;54.05
71149;BME280;59072;42.144;25.200;2023-08-30T01:30:40;98906.44;;;24.69;53.67
71149;BME280;59072;42.144;25.200;2023-08-30T01:33:07;98908.94;;;24.62;54.84
71149;BME280;59072;42.144;25.200;2023-08-30T01:35:34;98915.75;;;24.56;54.40
71149;BME280;59072;42.144;25.200;2023-08-30T01:38:04;98904.34;;;24.41;54.72
71149;BME280;59072;42.144;25.200;2023-08-30T01:40:35;98906.22;;;24.50;54.93
71149;BME280;59072;42.144;25.200;2023-08-30T01:43:01;98910.09;;;24.61;54.60
71149;BME280;59072;42.144;25.200;2023-08-30T01:45:28;98909.81;;;24.41;55.18
71149;BME280;59072;42.144;25.200;2023-08-30T01:47:57;98907.31;;;24.49;55.20
71149;BME280;59072;42.144;25.200;2023-08-30T01:50:22;98915.06;;;24.59;54.83
71149;BME280;59072;42.144;25.200;2023-08-30T01:52:49;98907.81;;;24.51;55.31
71149;BME280;59072;42.144;25.200;2023-08-30T01:55:16;98912.19;;;24.31;55.79
71149;BME280;59072;42.144;25.200;2023-08-30T01:57:43;98909.53;;;24.10;56.48
71149;BME280;59072;42.144;25.200;2023-08-30T02:00:09;98918.84;;;24.21;55.89
71149;BME280;59072;42.144;25.200;2023-08-30T02:02:34;98920.13;;;24.23;56.34
71149;BME280;59072;42.144;25.200;2023-08-30T02:05:02;98912.13;;;24.52;55.93
71149;BME280;59072;42.144;25.200;2023-08-30T02:07:39;98917.41;;;24.23;56.37
71149;BME280;59072;42.144;25.200;2023-08-30T02:10:10;98931.34;;;24.10;56.94
71149;BME280;59072;42.144;25.200;2023-08-30T02:12:43;98937.00;;;24.17;56.49
71149;BME280;59072;42.144;25.200;2023-08-30T02:15:12;98937.75;;;24.38;57.01
71149;BME280;59072;42.144;25.200;2023-08-30T02:17:38;98937.47;;;24.19;56.17
71149;BME280;59072;42.144;25.200;2023-08-30T02:20:06;98940.09;;;24.15;56.19
71149;BME280;59072;42.144;25.200;2023-08-30T02:22:33;98937.94;;;24.21;56.98
71149;BME280;59072;42.144;25.200;2023-08-30T02:24:59;98937.47;;;24.19;57.76
71149;BME280;59072;42.144;25.200;2023-08-30T02:27:24;98934.06;;;24.10;56.31
71149;BME280;59072;42.144;25.200;2023-08-30T02:29:50;98947.88;;;24.04;56.19
71149;BME280;59072;42.144;25.200;2023-08-30T02:32:15;98937.66;;;24.01;56.24
71149;BME280;59072;42.144;25.200;2023-08-30T02:34:47;98935.69;;;23.90;56.32
71149;BME280;59072;42.144;25.200;2023-08-30T02:37:12;98931.66;;;23.75;57.70
71149;BME280;59072;42.144;25.200;2023-08-30T02:39:37;98916.13;;;23.54;59.51
71149;BME280;59072;42.144;25.200;2023-08-30T02:42:03;98919.22;;;23.86;57.70
71149;BME280;59072;42.144;25.200;2023-08-30T02:44:28;98930.34;;;23.81;57.49
71149;BME280;59072;42.144;25.200;2023-08-30T02:46:54;98915.06;;;23.89;58.91
71149;BME280;59072;42.144;25.200;2023-08-30T02:49:19;98919.16;;;23.95;58.67
71149;BME280;59072;42.144;25.200;2023-08-30T02:51:44;98922.44;;;24.00;58.45
71149;BME280;59072;42.144;25.200;2023-08-30T02:54:10;98922.16;;;23.81;59.35
71149;BME280;59072;42.144;25.200;2023-08-30T02:56:37;98925.50;;;23.86;59.34
71149;BME280;59072;42.144;25.200;2023-08-30T02:59:03;98921.09;;;23.73;59.02
71149;BME280;59072;42.144;25.200;2023-08-30T03:01:28;98925.06;;;23.76;60.30
71149;BME280;59072;42.144;25.200;2023-08-30T03:03:54;98920.50;;;23.67;60.66
71149;BME280;59072;42.144;25.200;2023-08-30T03:06:22;98919.50;;;23.51;61.12
71149;BME280;59072;42.144;25.200;2023-08-30T03:08:47;98916.94;;;23.34;61.65
71149;BME280;59072;42.144;25.200;2023-08-30T03:11:13;98927.28;;;23.40;61.36
71149;BME280;59072;42.144;25.200;2023-08-30T03:13:39;98939.88;;;23.45;58.69
71149;BME280;59072;42.144;25.200;2023-08-30T03:16:12;98927.38;;;23.02;60.10
71149;BME280;59072;42.144;25.200;2023-08-30T03:18:38;98922.25;;;23.09;62.29
71149;BME280;59072;42.144;25.200;2023-08-30T03:21:04;98924.03;;;23.05;61.93
71149;BME280;59072;42.144;25.200;2023-08-30T03:23:33;98926.22;;;23.12;62.83
71149;BME280;59072;42.144;25.200;2023-08-30T03:25:59;98926.91;;;23.30;61.72
71149;BME280;59072;42.144;25.200;2023-08-30T03:28:25;98925.75;;;23.10;60.71
71149;BME280;59072;42.144;25.200;2023-08-30T03:30:51;98930.56;;;23.04;61.34
71149;BME280;59072;42.144;25.200;2023-08-30T03:33:16;98943.31;;;23.12;61.45
71149;BME280;59072;42.144;25.200;2023-08-30T03:35:41;98939.88;;;23.03;63.01
71149;BME280;59072;42.144;25.200;2023-08-30T03:38:07;98955.97;;;22.78;62.75
71149;BME280;59072;42.144;25.200;2023-08-30T03:40:32;98962.72;;;22.72;62.65
71149;BME280;59072;42.144;25.200;2023-08-30T03:42:58;98967.84;;;22.65;62.86
71149;BME280;59072;42.144;25.200;2023-08-30T03:45:23;98959.41;;;22.49;63.55
71149;BME280;59072;42.144;25.200;2023-08-30T03:47:48;98961.56;;;22.26;65.60
71149;BME280;59072;42.144;25.200;2023-08-30T03:50:14;98966.03;;;22.22;66.66
71149;BME280;59072;42.144;25.200;2023-08-30T03:52:40;98981.03;;;22.45;66.33
71149;BME280;59072;42.144;25.200;2023-08-30T03:55:05;98972.06;;;22.54;65.75
71149;BME280;59072;42.144;25.200;2023-08-30T03:57:31;98980.63;;;22.64;64.82
71149;BME280;59072;42.144;25.200;2023-08-30T03:59:56;98993.59;;;22.59;63.55
71149;BME280;59072;42.144;25.200;2023-08-30T04:02:22;98992.19;;;22.53;63.70
71149;BME280;59072;42.144;25.200;2023-08-30T04:04:48;98993.47;;;22.46;63.91
71149;BME280;59072;42.144;25.200;2023-08-30T04:07:14;99002.13;;;22.40;65.17
71149;BME280;59072;42.144;25.200;2023-08-30T04:09:40;98996.13;;;22.73;64.54
71149;BME280;59072;42.144;25.200;2023-08-30T04:12:06;98999.81;;;23.06;63.88
71149;BME280;59072;42.144;25.200;2023-08-30T04:14:32;99004.47;;;23.57;62.06
71149;BME280;59072;42.144;25.200;2023-08-30T04:16:57;98999.22;;;23.73;62.42
71149;BME280;59072;42.144;25.200;2023-08-30T04:19:23;98998.69;;;23.58;61.42
71149;BME280;59072;42.144;25.200;2023-08-30T04:21:48;99002.22;;;23.38;62.73
71149;BME280;59072;42.144;25.200;2023-08-30T04:24:14;98997.41;;;23.35;62.54
71149;BME280;59072;42.144;25.200;2023-08-30T04:26:40;99003.22;;;23.54;62.37
71149;BME280;59072;42.144;25.200;2023-08-30T04:29:06;99006.00;;;23.66;61.67
71149;BME280;59072;42.144;25.200;2023-08-30T04:31:31;98996.56;;;23.43;62.48
71149;BME280;59072;42.144;25.200;2023-08-30T04:33:59;98991.88;;;23.22;62.44
71149;BME280;59072;42.144;25.200;2023-08-30T04:36:25;99001.97;;;23.22;62.67
71149;BME280;59072;42.144;25.200;2023-08-30T04:38:50;99000.25;;;23.17;63.29
71149;BME280;59072;42.144;25.200;2023-08-30T04:41:21;99001.91;;;23.31;62.50
71149;BME280;59072;42.144;25.200;2023-08-30T04:43:47;99003.53;;;23.02;62.21
71149;BME280;59072;42.144;25.200;2023-08-30T04:46:12;98994.03;;;22.78;62.80
71149;BME280;59072;42.144;25.200;2023-08-30T04:48:38;99003.81;;;23.00;61.85
71149;BME280;59072;42.144;25.200;2023-08-30T04:51:07;99008.91;;;22.63;63.60
71149;BME280;59072;42.144;25.200;2023-08-30T04:53:32;99006.03;;;22.69;64.00
71149;BME280;59072;42.144;25.200;2023-08-30T04:55:58;98999.94;;;22.72;62.99
71149;BME280;59072;42.144;25.200;2023-08-30T04:58:24;99004.06;;;22.22;65.28
71149;BME280;59072;42.144;25.200;2023-08-30T05:00:49;99002.78;;;22.28;65.61
71149;BME280;59072;42.144;25.200;2023-08-30T05:03:17;99005.16;;;22.21;65.64
71149;BME280;59072;42.144;25.200;2023-08-30T05:05:46;99000.56;;;22.30;65.23
71149;BME280;59072;42.144;25.200;2023-08-30T05:08:11;99005.00;;;22.08;66.76
71149;BME280;59072;42.144;25.200;2023-08-30T05:10:37;99009.16;;;22.15;67.44
71149;BME280;59072;42.144;25.200;2023-08-30T05:13:02;99019.41;;;22.35;67.05
71149;BME280;59072;42.144;25.200;2023-08-30T05:15:31;99028.00;;;22.46;65.82
71149;BME280;59072;42.144;25.200;2023-08-30T05:17:56;99033.50;;;22.76;65.92
71149;BME280;59072;42.144;25.200;2023-08-30T05:20:22;99023.84;;;22.96;64.05
71149;BME280;59072;42.144;25.200;2023-08-30T05:22:47;99010.97;;;22.75;64.95
71149;BME280;59072;42.144;25.200;2023-08-30T05:25:12;99024.84;;;22.82;65.59
71149;BME280;59072;42.144;25.200;2023-08-30T05:27:38;99019.53;;;22.95;64.24
71149;BME280;59072;42.144;25.200;2023-08-30T05:30:04;99029.81;;;23.19;64.51
71149;BME280;59072;42.144;25.200;2023-08-30T05:32:29;99013.63;;;23.52;62.71
71149;BME280;59072;42.144;25.200;2023-08-30T05:34:56;99032.47;;;23.87;61.19
71149;BME280;59072;42.144;25.200;2023-08-30T05:37:21;99042.03;;;23.93;60.78
71149;BME280;59072;42.144;25.200;2023-08-30T05:39:47;99044.25;;;23.70;62.41
71149;BME280;59072;42.144;25.200;2023-08-30T05:42:12;99041.66;;;23.74;62.41
71149;BME280;59072;42.144;25.200;2023-08-30T05:44:38;99035.38;;;23.82;61.72
71149;BME280;59072;42.144;25.200;2023-08-30T05:47:03;99020.16;;;24.02;61.05
71149;BME280;59072;42.144;25.200;2023-08-30T05:49:29;99037.09;;;24.41;59.41
71149;BME280;59072;42.144;25.200;2023-08-30T05:51:55;99029.16;;;24.48;59.72
71149;BME280;59072;42.144;25.200;2023-08-30T05:54:20;99030.16;;;24.77;58.73
71149;BME280;59072;42.144;25.200;2023-08-30T05:56:45;99030.69;;;24.70;59.53
71149;BME280;59072;42.144;25.200;2023-08-30T05:59:11;99031.53;;;24.83;58.61
71149;BME280;59072;42.144;25.200;2023-08-30T06:01:36;99039.03;;;24.86;58.91
71149;BME280;59072;42.144;25.200;2023-08-30T06:04:02;99037.50;;;24.64;59.52
71149;BME280;59072;42.144;25.200;2023-08-30T06:06:29;99038.94;;;25.07;58.44
71149;BME280;59072;42.144;25.200;2023-08-30T06:08:55;99041.09;;;25.51;56.30
71149;BME280;59072;42.144;25.200;2023-08-30T06:11:20;99040.72;;;25.64;56.10
71149;BME280;59072;42.144;25.200;2023-08-30T06:13:45;99023.44;;;25.60;55.89
71149;BME280;59072;42.144;25.200;2023-08-30T06:16:11;99026.34;;;25.92;55.76
71149;BME280;59072;42.144;25.200;2023-08-30T06:18:36;99024.44;;;26.09;55.24
71149;BME280;59072;42.144;25.200;2023-08-30T06:21:02;99019.63;;;26.18;54.61
71149;BME280;59072;42.144;25.200;2023-08-30T06:23:33;99031.34;;;25.90;55.08
71149;BME280;59072;42.144;25.200;2023-08-30T06:25:59;99041.56;;;26.05;55.48
71149;BME280;59072;42.144;25.200;2023-08-30T06:28:25;99042.94;;;26.28;54.27
71149;BME280;59072;42.144;25.200;2023-08-30T06:30:51;99043.59;;;26.53;54.32
71149;BME280;59072;42.144;25.200;2023-08-30T06:33:16;99039.19;;;26.48;53.51
71149;BME280;59072;42.144;25.200;2023-08-30T06:35:42;99038.09;;;26.65;53.49
71149;BME280;59072;42.144;25.200;2023-08-30T06:38:08;99045.69;;;26.88;52.58
71149;BME280;59072;42.144;25.200;2023-08-30T06:40:33;99049.13;;;27.00;54.45
71149;BME280;59072;42.144;25.200;2023-08-30T06:42:59;99056.44;;;27.12;52.41
71149;BME280;59072;42.144;25.200;2023-08-30T06:45:24;99060.31;;;27.11;51.27
71149;BME280;59072;42.144;25.200;2023-08-30T06:47:50;99062.00;;;27.32;50.72
71149;BME280;59072;42.144;25.200;2023-08-30T06:50:17;99060.16;;;27.04;53.21
71149;BME280;59072;42.144;25.200;2023-08-30T06:52:42;99071.88;;;26.89;53.27
71149;BME280;59072;42.144;25.200;2023-08-30T06:55:08;99071.09;;;27.04;53.55
71149;BME280;59072;42.144;25.200;2023-08-30T06:57:33;99074.44;;;27.45;51.96
71149;BME280;59072;42.144;25.200;2023-08-30T06:59:59;99071.09;;;27.36;52.10
71149;BME280;59072;42.144;25.200;2023-08-30T07:02:30;99069.09;;;27.68;51.01
71149;BME280;59072;42.144;25.200;2023-08-30T07:04:56;99083.94;;;28.02;50.15
71149;BME280;59072;42.144;25.200;2023-08-30T07:07:21;99073.94;;;27.75;51.09
71149;BME280;59072;42.144;25.200;2023-08-30T07:09:47;99074.81;;;27.79;51.33
71149;BME280;59072;42.144;25.200;2023-08-30T07:12:12;99067.81;;;27.46;53.21
71149;BME280;59072;42.144;25.200;2023-08-30T07:14:37;99067.41;;;27.63;52.40
71149;BME280;59072;42.144;25.200;2023-08-30T07:17:03;99067.03;;;27.81;51.34
71149;BME280;59072;42.144;25.200;2023-08-30T07:19:28;99055.22;;;27.96;52.08
71149;BME280;59072;42.144;25.200;2023-08-30T07:21:54;99075.75;;;28.45;49.57
71149;BME280;59072;42.144;25.200;2023-08-30T07:24:19;99077.28;;;28.42;50.09
71149;BME280;59072;42.144;25.200;2023-08-30T07:26:45;99077.72;;;28.44;49.94
71149;BME280;59072;42.144;25.200;2023-08-30T07:29:10;99079.72;;;28.48;49.89
71149;BME280;59072;42.144;25.200;2023-08-30T07:31:35;99077.03;;;28.71;48.94
71149;BME280;59072;42.144;25.200;2023-08-30T07:34:01;99079.97;;;28.81;48.60
71149;BME280;59072;42.144;25.200;2023-08-30T07:36:27;99081.97;;;28.84;48.00
71149;BME280;59072;42.144;25.200;2023-08-30T07:38:53;99078.81;;;29.05;50.37
71149;BME280;59072;42.144;25.200;2023-08-30T07:41:18;99074.59;;;28.89;49.13
71149;BME280;59072;42.144;25.200;2023-08-30T07:43:44;99070.91;;;28.77;49.31
71149;BME280;59072;42.144;25.200;2023-08-30T07:46:09;99077.00;;;29.13;51.13
71149;BME280;59072;42.144;25.200;2023-08-30T07:48:35;99076.63;;;28.92;47.86
71149;BME280;59072;42.144;25.200;2023-08-30T07:51:00;99059.53;;;29.02;47.09
71149;BME280;59072;42.144;25.200;2023-08-30T07:53:25;99056.06;;;29.05;47.88
71149;BME280;59072;42.144;25.200;2023-08-30T07:55:54;99067.28;;;29.19;48.55
71149;BME280;59072;42.144;25.200;2023-08-30T07:58:19;99076.06;;;29.29;47.85
71149;BME280;59072;42.144;25.200;2023-08-30T08:00:45;99074.13;;;29.56;48.33
71149;BME280;59072;42.144;25.200;2023-08-30T08:03:10;99081.66;;;29.62;47.14
71149;BME280;59072;42.144;25.200;2023-08-30T08:05:36;99084.47;;;29.66;46.65
71149;BME280;59072;42.144;25.200;2023-08-30T08:08:02;99088.28;;;29.84;46.38
71149;BME280;59072;42.144;25.200;2023-08-30T08:10:32;99075.75;;;30.21;44.07
71149;BME280;59072;42.144;25.200;2023-08-30T08:12:58;99084.22;;;29.75;45.27
71149;BME280;59072;42.144;25.200;2023-08-30T08:15:23;99076.34;;;29.73;45.08
71149;BME280;59072;42.144;25.200;2023-08-30T08:17:49;99088.28;;;29.84;43.89
71149;BME280;59072;42.144;25.200;2023-08-30T08:20:14;99081.34;;;29.94;43.91
71149;BME280;59072;42.144;25.200;2023-08-30T08:22:40;99093.06;;;29.91;42.95
71149;BME280;59072;42.144;25.200;2023-08-30T08:25:05;99075.34;;;30.19;43.20
71149;BME280;59072;42.144;25.200;2023-08-30T08:27:35;99074.44;;;30.41;43.79
71149;BME280;59072;42.144;25.200;2023-08-30T08:30:01;99077.16;;;30.38;42.31
71149;BME280;59072;42.144;25.200;2023-08-30T08:32:26;99080.66;;;30.72;41.32
71149;BME280;59072;42.144;25.200;2023-08-30T08:34:52;99079.91;;;30.75;41.53
71149;BME280;59072;42.144;25.200;2023-08-30T08:37:17;99065.06;;;30.46;43.47
71149;BME280;59072;42.144;25.200;2023-08-30T08:39:42;99064.91;;;30.69;41.58
71149;BME280;59072;42.144;25.200;2023-08-30T08:42:09;99062.38;;;30.91;41.92
71149;BME280;59072;42.144;25.200;2023-08-30T08:44:36;99064.22;;;31.28;40.24
71149;BME280;59072;42.144;25.200;2023-08-30T08:47:03;99069.28;;;31.18;40.40
71149;BME280;59072;42.144;25.200;2023-08-30T08:49:31;99059.00;;;31.12;39.36
71149;BME280;59072;42.144;25.200;2023-08-30T08:51:57;99073.59;;;31.71;39.24
71149;BME280;59072;42.144;25.200;2023-08-30T08:54:23;99068.31;;;31.48;38.78
71149;BME280;59072;42.144;25.200;2023-08-30T08:56:48;99064.09;;;31.65;38.76
71149;BME280;59072;42.144;25.200;2023-08-30T08:59:19;99049.63;;;31.86;38.58
71149;BME280;59072;42.144;25.200;2023-08-30T09:01:44;99052.28;;;31.64;39.96
71149;BME280;59072;42.144;25.200;2023-08-30T09:04:11;99049.19;;;31.77;38.67
71149;BME280;59072;42.144;25.200;2023-08-30T09:06:37;99044.38;;;31.59;39.64
71149;BME280;59072;42.144;25.200;2023-08-30T09:09:04;99044.00;;;31.61;38.68
71149;BME280;59072;42.144;25.200;2023-08-30T09:11:30;99040.19;;;31.83;37.89
71149;BME280;59072;42.144;25.200;2023-08-30T09:13:56;99048.81;;;31.82;37.34
71149;BME280;59072;42.144;25.200;2023-08-30T09:16:22;99039.81;;;31.92;37.84
71149;BME280;59072;42.144;25.200;2023-08-30T09:19:01;99037.47;;;31.94;38.97
71149;BME280;59072;42.144;25.200;2023-08-30T09:21:27;99043.00;;;32.01;36.85
71149;BME280;59072;42.144;25.200;2023-08-30T09:24:04;99031.25;;;32.08;37.24
71149;BME280;59072;42.144;25.200;2023-08-30T09:26:30;99023.00;;;32.22;37.30
71149;BME280;59072;42.144;25.200;2023-08-30T09:29:07;99028.13;;;32.31;36.75
71149;BME280;59072;42.144;25.200;2023-08-30T09:33:59;99017.91;;;32.50;36.51
71149;BME280;59072;42.144;25.200;2023-08-30T09:36:32;99023.47;;;32.78;35.11
71149;BME280;59072;42.144;25.200;2023-08-30T09:39:05;99010.06;;;32.66;35.43
71149;BME280;59072;42.144;25.200;2023-08-30T09:41:32;99014.00;;;32.97;34.93
71149;BME280;59072;42.144;25.200;2023-08-30T09:44:06;98999.44;;;32.72;34.60
71149;BME280;59072;42.144;25.200;2023-08-30T09:46:39;99008.47;;;33.30;35.19
71149;BME280;59072;42.144;25.200;2023-08-30T09:49:05;98999.81;;;33.17;34.32
71149;BME280;59072;42.144;25.200;2023-08-30T09:51:39;98998.59;;;33.07;35.42
71149;BME280;59072;42.144;25.200;2023-08-30T09:54:14;98995.06;;;33.21;33.24
71149;BME280;59072;42.144;25.200;2023-08-30T09:56:44;98988.31;;;33.40;34.49
71149;BME280;59072;42.144;25.200;2023-08-30T09:59:14;98994.97;;;33.68;34.61
71149;BME280;59072;42.144;25.200;2023-08-30T10:01:42;98987.91;;;33.45;34.14
71149;BME280;59072;42.144;25.200;2023-08-30T10:04:08;98992.28;;;33.35;34.77
71149;BME280;59072;42.144;25.200;2023-08-30T10:06:35;98985.63;;;32.68;34.34
71149;BME280;59072;42.144;25.200;2023-08-30T10:09:02;98987.91;;;33.45;34.02
71149;BME280;59072;42.144;25.200;2023-08-30T10:11:31;98986.66;;;33.68;33.45
71149;BME280;59072;42.144;25.200;2023-08-30T10:13:58;98977.63;;;33.46;33.57
71149;BME280;59072;42.144;25.200;2023-08-30T10:16:26;98978.19;;;34.03;33.14
71149;BME280;59072;42.144;25.200;2023-08-30T10:18:54;98979.94;;;33.69;33.31
71149;BME280;59072;42.144;25.200;2023-08-30T10:21:26;98983.91;;;33.68;33.07
71149;BME280;59072;42.144;25.200;2023-08-30T10:23:53;98964.72;;;34.06;32.08
71149;BME280;59072;42.144;25.200;2023-08-30T10:26:23;98977.34;;;34.10;32.09
71149;BME280;59072;42.144;25.200;2023-08-30T10:28:52;98964.44;;;34.49;32.71
71149;BME280;59072;42.144;25.200;2023-08-30T10:31:21;98977.13;;;34.95;32.59
71149;BME280;59072;42.144;25.200;2023-08-30T10:33:50;98975.03;;;35.06;31.19
71149;BME280;59072;42.144;25.200;2023-08-30T10:36:23;98960.03;;;35.04;30.77
71149;BME280;59072;42.144;25.200;2023-08-30T10:38:53;98965.66;;;34.96;30.47
71149;BME280;59072;42.144;25.200;2023-08-30T10:41:23;98960.75;;;35.11;30.48
71149;BME280;59072;42.144;25.200;2023-08-30T10:43:54;98957.53;;;35.16;29.96
71149;BME280;59072;42.144;25.200;2023-08-30T10:46:34;98951.41;;;35.97;30.34
71149;BME280;59072;42.144;25.200;2023-08-30T10:49:11;98945.50;;;35.30;31.19
71149;BME280;59072;42.144;25.200;2023-08-30T10:51:39;98941.41;;;35.42;29.68
71149;BME280;59072;42.144;25.200;2023-08-30T10:54:24;98940.84;;;35.89;27.58
71149;BME280;59072;42.144;25.200;2023-08-30T10:56:57;98933.56;;;35.98;27.84
71149;BME280;59072;42.144;25.200;2023-08-30T10:59:27;98930.63;;;35.82;29.41
71149;BME280;59072;42.144;25.200;2023-08-30T11:01:55;98927.69;;;35.66;29.52
71149;BME280;59072;42.144;25.200;2023-08-30T11:04:26;98928.03;;;35.98;28.82
71149;BME280;59072;42.144;25.200;2023-08-30T11:06:54;98928.84;;;35.95;28.30
71149;BME280;59072;42.144;25.200;2023-08-30T11:09:22;98918.19;;;36.21;28.40
71149;BME280;59072;42.144;25.200;2023-08-30T11:11:49;98919.56;;;36.06;28.09
71149;BME280;59072;42.144;25.200;2023-08-30T11:14:16;98915.63;;;36.07;27.77
71149;BME280;59072;42.144;25.200;2023-08-30T11:16:42;98919.22;;;36.31;28.31
71149;BME280;59072;42.144;25.200;2023-08-30T11:19:09;98916.63;;;36.20;27.76
71149;BME280;59072;42.144;25.200;2023-08-30T11:21:39;98917.34;;;36.95;26.93
71149;BME280;59072;42.144;25.200;2023-08-30T11:24:06;98909.63;;;36.59;27.03
71149;BME280;59072;42.144;25.200;2023-08-30T11:26:32;98910.19;;;37.17;26.74
71149;BME280;59072;42.144;25.200;2023-08-30T11:29:06;98893.34;;;37.25;26.07
71149;BME280;59072;42.144;25.200;2023-08-30T11:31:32;98893.50;;;36.74;26.93
71149;BME280;59072;42.144;25.200;2023-08-30T11:33:58;98878.00;;;36.29;26.87
71149;BME280;59072;42.144;25.200;2023-08-30T11:36:32;98879.34;;;37.08;26.45
71149;BME280;59072;42.144;25.200;2023-08-30T11:38:59;98878.81;;;37.17;26.60
71149;BME280;59072;42.144;25.200;2023-08-30T11:41:27;98871.38;;;36.23;27.25
71149;BME280;59072;42.144;25.200;2023-08-30T11:43:54;98865.09;;;36.66;26.07
71149;BME280;59072;42.144;25.200;2023-08-30T11:46:20;98862.84;;;37.01;26.69
71149;BME280;59072;42.144;25.200;2023-08-30T11:48:47;98861.63;;;36.82;26.10
71149;BME280;59072;42.144;25.200;2023-08-30T11:51:13;98865.19;;;36.59;26.55
71149;BME280;59072;42.144;25.200;2023-08-30T11:53:39;98853.94;;;37.30;26.14
71149;BME280;59072;42.144;25.200;2023-08-30T11:56:05;98861.72;;;37.55;25.01
71149;BME280;59072;42.144;25.200;2023-08-30T11:58:35;98832.31;;;36.77;25.99
71149;BME280;59072;42.144;25.200;2023-08-30T12:01:04;98849.03;;;36.30;27.86
71149;BME280;59072;42.144;25.200;2023-08-30T12:03:31;98841.66;;;36.67;27.13
71149;BME280;59072;42.144;25.200;2023-08-30T12:05:57;98842.41;;;37.11;26.19
71149;BME280;59072;42.144;25.200;2023-08-30T12:08:27;98836.81;;;37.68;24.58
71149;BME280;59072;42.144;25.200;2023-08-30T12:10:54;98819.09;;;38.27;24.81
71149;BME280;59072;42.144;25.200;2023-08-30T12:13:21;98826.22;;;38.28;24.37
71149;BME280;59072;42.144;25.200;2023-08-30T12:15:47;98826.72;;;37.90;24.78
71149;BME280;59072;42.144;25.200;2023-08-30T12:18:13;98819.13;;;37.42;25.27
71149;BME280;59072;42.144;25.200;2023-08-30T12:20:38;98810.00;;;37.57;26.26
71149;BME280;59072;42.144;25.200;2023-08-30T12:23:03;98815.44;;;37.97;24.48
71149;BME280;59072;42.144;25.200;2023-08-30T12:25:29;98813.59;;;38.69;24.19
71149;BME280;59072;42.144;25.200;2023-08-30T12:27:56;98817.81;;;38.61;23.12
71149;BME280;59072;42.144;25.200;2023-08-30T12:30:21;98809.31;;;38.94;23.49
71149;BME280;59072;42.144;25.200;2023-08-30T12:32:47;98812.44;;;38.54;23.40
71149;BME280;59072;42.144;25.200;2023-08-30T12:35:13;98805.34;;;38.20;23.59
71149;BME280;59072;42.144;25.200;2023-08-30T12:37:42;98798.41;;;38.41;23.11
71149;BME280;59072;42.144;25.200;2023-08-30T12:40:07;98797.19;;;38.58;23.29
71149;BME280;59072;42.144;25.200;2023-08-30T12:42:33;98797.06;;;38.33;22.93
71149;BME280;59072;42.144;25.200;2023-08-30T12:44:59;98780.38;;;38.62;23.34
71149;BME280;59072;42.144;25.200;2023-08-30T12:47:24;98778.25;;;39.21;22.85
71149;BME280;59072;42.144;25.200;2023-08-30T12:49:50;98789.09;;;39.19;22.42
71149;BME280;59072;42.144;25.200;2023-08-30T12:52:15;98781.66;;;39.54;22.39